Latest Weather Observations for Darwin Airport

IDD60801

Issued at 9:21 am CST Tuesday 20 October 2020 (issued every 10 minutes, with the page automatically refreshed every 10 minutes)

About weather observations | Map of weather stations | Latest weather observations for NT | Other Formats
Station Details ID: 014015 Name: DARWIN AIRPORT Lat: -12.42 Lon: 130.89 Height: 30.4 m
Data from the previous 72 hours. | See also: Recent months at Darwin Airport
Date/Time
CST
Temp
°C
App
Temp
°C
Dew
Point
°C
Rel
Hum
%
Delta-T
°C
Wind Press
QNH
hPa
Press
MSL
hPa
Rain since
9am
mm
Dir  Spd
km/h
Gust
km/h
Spd
kts
Gust
kts
20/09:00am 30.0 33.3 21.9 62 5.5 NW 7 15 4 8 1012.3 1012.1 0.0
20/08:30am 29.8 33.1 22.5 65 5.0 NNW 9 17 5 9 1012.3 1012.1 0.0
20/08:00am 29.2 32.1 22.4 66 4.6 NW 11 13 6 7 1012.2 1012.0 0.0
20/07:30am 28.5 32.5 22.8 71 3.9 NW 6 9 3 5 1011.6 1011.4 0.0
20/07:00am 26.8 31.5 24.0 84 1.9 NNW 6 7 3 4 1011.0 1010.8 0.0
20/06:30am 26.0 30.7 24.0 89 1.4 N 6 7 3 4 1010.9 1010.6 0.0
20/06:00am 26.2 31.2 23.9 87 1.6 NNE 4 6 2 3 1010.7 1010.4 0.0
20/05:30am 26.4 31.4 23.8 85 1.8 NNW 4 6 2 3 1010.5 1010.2 0.0
20/05:00am 26.4 31.1 23.9 86 1.7 NNW 6 9 3 5 1010.3 1010.0 0.0
20/04:30am 26.7 31.4 23.9 84 1.9 NNW 6 7 3 4 1010.2 1009.9 0.0
20/04:00am 27.4 31.3 23.6 80 2.6 NNW 9 15 5 8 1009.9 1009.6 0.0
20/03:30am 27.6 32.0 23.8 80 2.6 NNW 7 9 4 5 1009.7 1009.4 0.0
20/03:00am 28.1 32.1 23.8 77 3.0 NW 9 13 5 7 1009.7 1009.4 0.0
20/02:30am 27.8 32.3 23.9 79 2.7 NNW 7 13 4 7 1009.5 1009.2 0.0
20/02:00am 27.9 32.0 24.0 79 2.7 NNW 9 13 5 7 1009.8 1009.5 0.0
20/01:30am 28.3 32.1 24.0 77 3.0 NW 11 15 6 8 1009.7 1009.4 0.0
20/01:00am 28.3 32.1 24.1 78 2.9 NW 11 17 6 9 1009.9 1009.6 0.0
20/12:30am 28.4 32.3 24.2 78 2.9 NW 11 15 6 8 1010.1 1009.8 0.0
20/12:00am 28.5 31.8 24.5 79 2.8 NW 15 20 8 11 1010.4 1010.1 0.0
 
Date/Time
CST
Temp
°C
App
Temp
°C
Dew
Point
°C
Rel
Hum
%
Delta-T
°C
Wind Press
QNH
hPa
Press
MSL
hPa
Rain since
9am
mm
Dir  Spd
km/h
Gust
km/h
Spd
kts
Gust
kts
19/11:30pm 28.8 32.1 24.5 77 3.0 NNW 15 19 8 10 1010.6 1010.3 0.0
19/11:00pm 29.1 32.0 23.9 73 3.6 NW 15 20 8 11 1010.7 1010.4 0.0
19/10:30pm 29.3 32.2 23.8 72 3.8 NW 15 20 8 11 1010.9 1010.6 0.0
19/10:00pm 29.0 32.6 23.8 73 3.6 W 11 15 6 8 1010.7 1010.4 0.0
19/09:30pm 28.9 32.5 23.7 73 3.6 W 11 15 6 8 1010.4 1010.1 0.0
19/09:00pm 28.8 32.7 23.6 73 3.6 W 9 13 5 7 1010.0 1009.7 0.0
19/08:30pm 28.9 32.3 23.4 72 3.8 W 11 19 6 10 1009.3 1009.0 0.0
19/08:00pm 29.1 32.1 23.3 71 4.0 W 13 19 7 10 1009.2 1008.9 0.0
19/07:30pm 29.5 32.6 22.8 67 4.6 WSW 11 15 6 8 1008.8 1008.5 0.0
19/07:00pm 29.7 32.4 22.2 64 5.1 WSW 11 15 6 8 1008.3 1008.0 0.0
19/06:30pm 29.9 33.0 22.9 66 4.8 WNW 11 15 6 8 1008.1 1007.8 0.0
19/06:00pm 30.6 32.3 23.0 64 5.2 WNW 19 22 10 12 1007.8 1007.5 0.0
19/05:30pm 31.4 31.6 19.4 49 7.9 WNW 17 22 9 12 1007.3 1007.0 0.0
19/05:00pm 31.6 32.4 19.8 49 7.8 WNW 15 19 8 10 1007.4 1007.1 0.0
19/04:30pm 31.3 32.2 21.5 56 6.6 WNW 19 24 10 13 1007.5 1007.2 0.0
19/04:00pm 31.7 32.1 21.0 53 7.2 WNW 20 26 11 14 1007.4 1007.1 0.0
19/03:30pm 31.7 32.3 21.3 54 7.0 NW 20 26 11 14 1007.6 1007.3 0.0
19/03:00pm 32.6 33.5 21.5 52 7.5 NW 19 26 10 14 1007.9 1007.6 0.0
19/02:30pm 31.5 32.6 21.3 54 6.9 NW 17 24 9 13 1008.3 1008.0 0.0
19/02:00pm 31.8 33.3 21.3 53 7.1 NNW 15 20 8 11 1008.9 1008.6 0.0
19/01:30pm 31.8 32.4 21.4 54 7.0 NW 20 26 11 14 1009.5 1009.2 0.0
19/01:00pm 31.3 32.2 20.8 53 7.0 NW 17 22 9 12 1010.1 1009.8 0.0
19/12:30pm 31.7 32.9 21.5 54 6.9 WNW 17 24 9 13 1010.6 1010.3 0.0
19/12:00pm 31.2 33.6 21.6 56 6.5 NNW 11 17 6 9 1011.2 1011.0 0.0
19/11:30am 30.8 33.3 21.8 58 6.1 NNW 11 19 6 10 1011.5 1011.3 0.0
19/11:00am 31.0 33.3 22.0 58 6.1 N 13 19 7 10 1011.7 1011.5 0.0
19/10:30am 30.4 32.5 22.5 62 5.4 NNW 15 24 8 13 1012.0 1011.8 0.0
19/10:00am 29.7 32.8 22.2 64 5.1 NNW 9 17 5 9 1012.1 1011.9 0.0
19/09:30am 30.0 32.9 22.4 63 5.2 NNW 11 17 6 9 1012.3 1012.1 0.0
19/09:00am 29.4 32.5 22.2 65 4.9 N 9 15 5 8 1012.4 1012.2 0.0
19/08:30am 29.3 32.2 22.5 67 4.6 N 11 17 6 9 1012.3 1012.1 0.0
19/08:00am 28.7 31.7 22.7 70 4.1 NNW 11 15 6 8 1012.0 1011.8 0.0
19/07:30am 28.0 31.6 23.0 74 3.4 N 9 13 5 7 1011.5 1011.3 0.0
19/07:00am 27.2 30.8 23.1 78 2.8 N 9 11 5 6 1011.2 1011.0 0.0
19/06:30am 26.3 30.4 23.2 83 2.1 N 7 9 4 5 1011.0 1010.8 0.0
19/06:00am 26.4 30.5 22.9 81 2.4 N 6 9 3 5 1010.6 1010.3 0.0
19/05:30am 26.4 30.3 23.0 81 2.3 N 7 13 4 7 1010.1 1009.8 0.0
19/05:00am 26.6 30.4 22.8 79 2.6 N 7 20 4 11 1009.9 1009.6 0.0
19/04:30am 26.9 30.8 22.6 77 2.9 N 6 9 3 5 1009.8 1009.5 0.0
19/04:00am 27.4 30.8 22.7 75 3.2 N 9 11 5 6 1010.0 1009.7 0.0
19/03:30am 27.7 31.4 23.2 76 3.1 N 9 13 5 7 1010.0 1009.7 0.0
19/03:00am 27.9 31.3 23.4 76 3.1 NNW 11 15 6 8 1010.1 1009.8 0.0
19/02:30am 27.9 31.5 23.7 78 2.9 NNW 11 17 6 9 1010.4 1010.1 0.0
19/02:00am 28.0 31.8 24.0 79 2.8 NNW 11 15 6 8 1010.3 1010.0 0.0
19/01:30am 28.2 31.9 23.9 77 3.0 NW 11 15 6 8 1010.4 1010.1 0.0
19/01:00am 28.2 31.7 23.5 75 3.2 NW 11 17 6 9 1010.5 1010.2 0.0
19/12:30am 28.4 31.9 23.5 75 3.4 WNW 11 15 6 8 1010.8 1010.5 0.0
19/12:00am 28.6 31.5 23.2 72 3.7 NW 13 19 7 10 1011.0 1010.8 0.0
 
Date/Time
CST
Temp
°C
App
Temp
°C
Dew
Point
°C
Rel
Hum
%
Delta-T
°C
Wind Press
QNH
hPa
Press
MSL
hPa
Rain since
9am
mm
Dir  Spd
km/h
Gust
km/h
Spd
kts
Gust
kts
18/11:30pm 28.6 31.7 23.5 74 3.5 NW 13 20 7 11 1011.0 1010.8 0.0
18/11:00pm 29.1 31.2 22.5 67 4.5 NW 15 19 8 10 1011.0 1010.8 0.0
18/10:30pm 29.1 30.8 22.3 66 4.6 NW 17 22 9 12 1010.7 1010.4 0.0
18/10:00pm 29.0 31.5 21.7 64 4.9 WNW 11 17 6 9 1010.3 1010.0 0.0
18/09:30pm 28.9 31.1 21.9 66 4.7 WNW 13 15 7 8 1009.9 1009.6 0.0
18/09:00pm 28.9 31.4 21.8 65 4.8 W 11 17 6 9 1009.5 1009.2 0.0
18/08:30pm 29.1 31.6 21.8 64 4.9 W 11 17 6 9 1009.3 1009.0 0.0
18/08:00pm 29.5 32.0 21.8 63 5.2 WSW 11 15 6 8 1009.1 1008.8 0.0
18/07:30pm 30.0 31.5 18.9 51 7.2 W 9 13 5 7 1008.9 1008.6 0.0
18/07:00pm 30.6 31.8 18.2 47 8.0 WNW 9 11 5 6 1008.6 1008.3 0.0
18/06:30pm 30.9 32.3 19.5 50 7.5 NNW 11 13 6 7 1008.3 1008.0 0.0
18/06:00pm 31.3 32.6 20.1 51 7.4 NNW 13 19 7 10 1007.9 1007.6 0.0
18/05:30pm 31.8 31.3 17.8 43 9.0 N 17 20 9 11 1007.6 1007.3 0.0
18/05:00pm 31.8 31.9 19.9 49 7.9 N 19 26 10 14 1007.3 1007.0 0.0
18/04:30pm 31.9 33.5 22.2 56 6.6 N 17 22 9 12 1007.4 1007.1 0.0
18/04:00pm 31.9 33.6 21.7 54 6.9 N 15 20 8 11 1007.6 1007.3 0.0
18/03:30pm 32.2 33.3 22.3 56 6.8 N 20 24 11 13 1007.9 1007.6 0.0
18/03:00pm 32.9 34.5 22.1 53 7.4 N 17 22 9 12 1008.4 1008.1 0.0
18/02:30pm 32.9 34.2 22.4 54 7.2 NNW 19 24 10 13 1008.8 1008.5 0.0
18/02:00pm 31.6 33.5 22.0 56 6.5 NNW 15 20 8 11 1009.1 1008.8 0.0
18/01:30pm 31.6 33.6 22.2 57 6.4 NNW 15 20 8 11 1009.6 1009.3 0.0
18/01:00pm 30.7 32.6 22.7 62 5.5 NW 17 20 9 11 1010.1 1009.8 0.0
18/12:30pm 30.5 32.5 22.9 64 5.2 WNW 17 22 9 12 1010.3 1010.0 0.0
18/12:00pm 30.4 33.1 22.8 64 5.2 NW 13 19 7 10 1010.8 1010.5 0.0
18/11:30am 32.3 33.9 22.2 55 6.9 N 17 22 9 12 1011.2 1011.0 0.0
18/11:00am 32.1 34.9 20.4 50 7.8 SSW 6 9 3 5 1011.5 1011.3 0.0
18/10:30am 31.4 34.4 21.3 55 6.8 NE 7 13 4 7 1011.7 1011.5 0.0
18/10:00am 30.8 34.0 21.6 58 6.2 NNE 7 15 4 8 1012.0 1011.8 0.0
18/09:30am 29.8 32.8 22.0 63 5.3 NE 9 15 5 8 1012.3 1012.1 0.0
18/09:00am 29.5 32.1 22.6 66 4.7 NE 13 17 7 9 1012.4 1012.2 0.2
18/08:30am 29.1 32.1 22.6 68 4.4 NE 11 15 6 8 1012.4 1012.2 0.2
18/08:00am 28.7 33.0 22.7 70 4.1 NNE 4 7 2 4 1012.1 1011.9 0.2
18/07:30am 27.2 31.3 22.9 77 2.9 NE 6 7 3 4 1011.8 1011.6 0.2
18/07:00am 26.5 31.4 23.0 81 2.4 NNE 2 6 1 3 1011.3 1011.1 0.2
18/06:30am 26.2 30.3 23.0 82 2.2 NNE 6 7 3 4 1010.9 1010.6 0.2
18/06:00am 26.5 30.5 22.8 80 2.5 NNE 6 7 3 4 1010.6 1010.3 0.2
18/05:30am 26.4 30.7 23.3 83 2.1 NNE 6 9 3 5 1010.3 1010.0 0.2
18/05:00am 26.4 30.5 23.3 83 2.1 NNE 7 11 4 6 1009.8 1009.5 0.2
18/04:30am 26.4 30.1 23.3 83 2.1 NNE 9 13 5 7 1009.6 1009.3 0.2
18/04:00am 26.2 30.7 24.0 88 1.5 NNE 7 13 4 7 1009.5 1009.2 0.2
18/03:30am 26.2 30.8 24.2 89 1.4 N 7 11 4 6 1009.5 1009.2 0.2
18/03:00am 26.6 31.1 24.0 86 1.8 NNE 7 11 4 6 1009.4 1009.1 0.2
18/02:30am 26.7 31.1 23.8 84 2.0 NNE 7 9 4 5 1009.5 1009.2 0.2
18/02:00am 26.6 31.2 23.8 84 1.9 N 6 7 3 4 1009.7 1009.4 0.2
18/01:30am 26.7 31.2 23.6 83 2.1 N 6 7 3 4 1009.7 1009.4 0.2
18/01:00am 26.8 31.2 23.4 81 2.3 N 6 7 3 4 1009.9 1009.6 0.2
18/12:30am 26.9 31.1 23.4 81 2.4 N 7 9 4 5 1010.3 1010.0 0.2
18/12:00am 26.9 31.0 23.2 80 2.5 N 7 11 4 6 1010.4 1010.1 0.2
 
Date/Time
CST
Temp
°C
App
Temp
°C
Dew
Point
°C
Rel
Hum
%
Delta-T
°C
Wind Press
QNH
hPa
Press
MSL
hPa
Rain since
9am
mm
Dir  Spd
km/h
Gust
km/h
Spd
kts
Gust
kts
17/11:30pm 26.8 31.1 23.6 82 2.2 N 7 9 4 5 1010.5 1010.2 0.2
17/11:00pm 27.0 31.1 23.3 80 2.5 N 7 9 4 5 1010.7 1010.4 0.2
17/10:30pm 27.4 30.3 23.2 78 2.9 N 13 19 7 10 1010.7 1010.4 0.2
17/10:00pm 28.5 31.8 22.6 70 4.0 NW 9 13 5 7 1010.6 1010.3 0.2
17/09:30pm 28.5 31.5 22.6 70 4.0 NW 11 17 6 9 1010.4 1010.1 0.2
17/09:00pm 28.5 31.1 22.6 70 4.0 NW 13 20 7 11 1009.9 1009.6 0.2
17/08:30pm 28.4 31.4 22.7 71 3.9 NW 11 15 6 8 1009.8 1009.5 0.2
17/08:00pm 28.5 31.1 22.6 70 4.0 NW 13 17 7 9 1009.3 1009.0 0.2
17/07:30pm 28.3 30.9 22.6 71 3.9 WNW 13 17 7 9 1009.0 1008.7 0.2
17/07:00pm 28.3 30.0 22.4 70 4.0 NW 17 20 9 11 1008.7 1008.4 0.2
17/06:30pm 28.3 30.2 23.8 76 3.1 NW 20 28 11 15 1008.4 1008.1 0.2
17/06:00pm 28.9 30.7 23.5 72 3.7 NW 20 26 11 14 1008.0 1007.7 0.2
17/05:30pm 30.4 32.2 21.2 58 6.2 NNW 13 17 7 9 1007.5 1007.2 0.2
17/05:00pm 30.8 32.5 21.6 58 6.2 N 15 20 8 11 1007.4 1007.1 0.2
17/04:30pm 30.9 33.6 22.1 59 6.0 NNW 11 19 6 10 1007.1 1006.8 0.2
17/04:00pm 30.2 32.8 22.6 63 5.2 N 13 17 7 9 1007.6 1007.3 0.2
17/03:30pm 29.9 32.2 22.7 65 4.9 N 15 20 8 11 1007.7 1007.4 0.2
17/03:00pm 28.9 32.0 22.1 66 4.6 NNW 9 15 5 8 1007.9 1007.6 0.2
17/02:30pm 28.3 31.0 22.9 72 3.7 N 13 19 7 10 1008.2 1007.9 0.2
17/02:00pm 28.3 30.1 22.6 71 3.9 NNE 17 20 9 11 1009.0 1008.7 0.2
17/01:30pm 29.2 31.4 23.2 70 4.1 N 17 24 9 13 1009.1 1008.8 0.2
17/01:00pm 30.0 33.7 23.2 67 4.7 NW 9 13 5 7 1009.6 1009.3 0.2
17/12:30pm 29.4 33.4 23.1 69 4.3 NNE 7 13 4 7 1010.3 1010.0 0.0
17/12:00pm 30.4 33.3 22.5 62 5.4 NNE 11 19 6 10 1010.7 1010.4 0.0
17/11:30am 30.7 33.4 22.2 60 5.8 NE 11 17 6 9 1010.8 1010.5 0.0
17/11:00am 30.4 33.7 22.5 62 5.4 NNE 9 15 5 8 1011.1 1010.9 0.0
17/10:30am 30.6 35.2 23.8 67 4.7 NNE 6 13 3 7 1011.1 1010.9 0.0
17/10:00am 29.5 33.2 23.2 69 4.3 ENE 9 17 5 9 1011.3 1011.1 0.0
17/09:30am 29.1 33.9 24.2 75 3.4 E 6 11 3 6 1011.4 1011.2 0.0

Other formats

Comma delimited format used in spreadsheet applications
http://www.bom.gov.au/fwo/IDD60801/IDD60801.94120.axf

JavaScript Object Notation format (JSON) in row-major order
http://www.bom.gov.au/fwo/IDD60801/IDD60801.94120.json

Data quality

Most of these data are generated automatically and are frequently updated. Quality checks on data are not normally performed. It is possible for incorrect values to appear. Refer to information at About Latest Weather Observations and please check the disclaimer before using these data.